Terminal Aerodrome Forecast
Issued by NWS Wilmington, NC

Home | Current Version | Previous Version | Text Only | Print | Product List | Glossary On
Versions: 1 2 3 4 5 6 7 8 9 10 11 12 13 14 15 16
000
FTUS42 KILM 270526
TAFMYR
TAF
KMYR 270526Z 2706/2806 20003KT P6SM SCT050
     FM270700 20008KT P6SM VCSH SCT020 BKN040
     FM271300 23006KT P6SM BKN030
     FM271500 23013G19KT P6SM SCT035
     FM272200 23005KT P6SM SCT050=

USA.gov is the U.S. government's official web portal to all federal, state and local government web resources and services.